Time;durP1;ratioP1;P1;durP2;ratioP2;P2;SDS_P1;SDS_P2;PMS_P1;PMS_P2;Temp;Humidity;BMP_temperature;BMP_pressure;BME280_temperature;BME280_humidity;BME280_pressure;Samples;Min_cycle;Max_cycle;Signal;HPM_P1;HPM_P2
2023/04/12 00:01:35;;;;;;;6.78;2.17;;;;;;;8.22;95.04;100508.22;4978131;28;20605;-95
2023/04/12 00:04:02;;;;;;;6.10;2.10;;;;;;;8.17;95.87;100494.25;4978379;28;20027;-95
2023/04/12 00:06:31;;;;;;;4.93;1.45;;;;;;;8.18;95.30;100489.13;4978734;28;20419;-94
2023/04/12 00:08:57;;;;;;;4.85;1.90;;;;;;;8.14;95.66;100476.00;4979448;28;20026;-94
2023/04/12 00:11:23;;;;;;;5.40;1.60;;;;;;;8.14;95.89;100481.19;4976614;28;21074;-94
2023/04/12 00:13:48;;;;;;;5.90;1.83;;;;;;;8.11;96.21;100473.31;4978262;28;20038;-95
2023/04/12 00:16:14;;;;;;;5.28;1.60;;;;;;;8.06;96.88;100457.63;4977998;28;20084;-94
2023/04/12 00:18:41;;;;;;;7.03;1.80;;;;;;;8.05;97.15;100458.44;4979202;28;20022;-93
2023/04/12 00:21:07;;;;;;;4.32;1.70;;;;;;;8.04;97.57;100461.00;4978627;28;20076;-95
2023/04/12 00:23:32;;;;;;;6.03;1.65;;;;;;;8.04;97.16;100453.22;4979540;28;20040;-95
2023/04/12 00:25:58;;;;;;;7.72;1.75;;;;;;;8.00;98.04;100437.56;4995805;28;20033;-94
2023/04/12 00:28:23;;;;;;;5.10;1.50;;;;;;;7.98;98.08;100428.88;4982500;28;20030;-95
2023/04/12 00:30:49;;;;;;;4.97;1.60;;;;;;;7.96;98.65;100414.09;4983279;28;20514;-94
2023/04/12 00:33:14;;;;;;;4.85;1.73;;;;;;;7.94;98.94;100410.59;4982613;28;20514;-95
2023/04/12 00:35:39;;;;;;;4.57;1.77;;;;;;;7.95;98.29;100407.16;4981014;28;20042;-94
2023/04/12 00:38:09;;;;;;;5.78;1.67;;;;;;;7.91;98.79;100401.00;4981398;28;20030;-95
2023/04/12 00:40:34;;;;;;;5.47;1.70;;;;;;;7.92;98.52;100388.91;4998897;28;20441;-94
2023/04/12 00:43:00;;;;;;;4.28;1.70;;;;;;;7.91;99.16;100377.66;4981635;28;20052;-95
2023/04/12 00:45:26;;;;;;;5.80;1.90;;;;;;;7.90;99.30;100372.44;4980625;28;20029;-94
2023/04/12 00:47:52;;;;;;;5.90;1.70;;;;;;;7.88;99.87;100374.09;4979045;28;20439;-94
2023/04/12 00:50:17;;;;;;;6.20;1.95;;;;;;;7.84;99.86;100374.03;4981282;28;20029;-94
2023/04/12 00:52:43;;;;;;;6.65;1.63;;;;;;;7.80;99.74;100364.41;4981473;28;20479;-95
2023/04/12 00:55:09;;;;;;;5.93;1.65;;;;;;;7.81;99.84;100355.78;4980536;28;20084;-94
2023/04/12 00:57:36;;;;;;;7.07;1.73;;;;;;;7.79;100.00;100353.97;4981939;28;20045;-94
2023/04/12 01:00:11;;;;;;;4.47;1.60;;;;;;;7.79;99.81;100341.91;4982521;28;20033;-94
2023/04/12 01:02:38;;;;;;;7.15;2.17;;;;;;;7.78;100.00;100329.78;4980358;28;20034;-94
2023/04/12 01:05:05;;;;;;;6.72;1.90;;;;;;;7.77;100.00;100322.81;4979551;28;20046;-95
2023/04/12 01:07:50;;;;;;;6.80;1.90;;;;;;;7.80;100.00;100317.72;4982868;28;20030;-94
2023/04/12 01:10:37;;;;;;;6.50;2.20;;;;;;;7.77;100.00;100314.19;4997242;28;20061;-94
2023/04/12 01:13:11;;;;;;;9.23;1.88;;;;;;;7.75;100.00;100300.28;4980197;28;20035;-94
2023/04/12 01:15:44;;;;;;;5.47;1.70;;;;;;;7.75;100.00;100289.91;4997930;28;20060;-94
2023/04/12 01:18:18;;;;;;;6.60;2.08;;;;;;;7.72;100.00;100279.44;4996969;28;20069;-95
2023/04/12 01:20:56;;;;;;;5.78;2.08;;;;;;;7.71;100.00;100276.00;4980847;28;20018;-94
2023/04/12 01:23:40;;;;;;;5.40;1.75;;;;;;;7.69;100.00;100263.81;4998143;28;20026;-96
2023/04/12 01:26:27;;;;;;;6.43;1.83;;;;;;;7.67;100.00;100258.59;4980192;28;20030;-96
2023/04/12 01:28:53;;;;;;;5.55;1.90;;;;;;;7.64;100.00;100248.16;4981843;28;20419;-96
2023/04/12 01:31:20;;;;;;;6.75;2.10;;;;;;;7.63;100.00;100241.19;4981055;28;20112;-96
2023/04/12 01:33:46;;;;;;;4.38;2.10;;;;;;;7.64;100.00;100233.44;4980423;28;20015;-96
2023/04/12 01:36:19;;;;;;;6.13;1.90;;;;;;;7.61;100.00;100233.38;4982035;28;20029;-96
2023/04/12 01:38:45;;;;;;;6.05;1.80;;;;;;;7.63;100.00;100230.81;4980777;28;20026;-96
2023/04/12 01:41:11;;;;;;;4.82;1.95;;;;;;;7.64;100.00;100214.44;4981259;28;20394;-96
2023/04/12 01:43:44;;;;;;;6.15;1.90;;;;;;;7.64;100.00;100201.47;4981550;28;20707;-96
2023/04/12 01:46:11;;;;;;;4.68;1.63;;;;;;;7.61;100.00;100204.00;4981070;28;20125;-95
2023/04/12 01:48:38;;;;;;;6.75;1.88;;;;;;;7.60;100.00;100197.03;4980671;28;20021;-95
2023/04/12 01:51:05;;;;;;;6.18;2.20;;;;;;;7.59;100.00;100201.38;4979796;28;20037;-96
2023/04/12 01:53:49;;;;;;;6.07;1.92;;;;;;;7.57;100.00;100191.78;4978167;28;20030;-96
2023/04/12 01:56:16;;;;;;;5.75;1.90;;;;;;;7.59;100.00;100192.69;4981300;28;20068;-96
2023/04/12 01:58:43;;;;;;;4.53;1.83;;;;;;;7.58;100.00;100178.00;4997813;28;20022;-96
2023/04/12 02:01:11;;;;;;;8.40;2.13;;;;;;;7.58;100.00;100165.91;4981022;28;20025;-96
2023/04/12 02:03:41;;;;;;;5.63;1.90;;;;;;;7.59;100.00;100154.69;4978503;28;20026;-96
2023/04/12 02:06:07;;;;;;;6.07;1.85;;;;;;;7.59;100.00;100146.03;4982919;28;20402;-96
2023/04/12 02:08:33;;;;;;;5.05;1.80;;;;;;;7.59;100.00;100143.44;4983209;28;20060;-96
2023/04/12 02:10:58;;;;;;;6.07;1.95;;;;;;;7.60;100.00;100134.81;4981547;28;20080;-95
2023/04/12 02:13:25;;;;;;;7.53;2.03;;;;;;;7.60;100.00;100130.53;4981142;28;20056;-96
2023/04/12 02:15:53;;;;;;;8.02;2.20;;;;;;;7.59;100.00;100123.59;4980007;28;20030;-96
2023/04/12 02:18:18;;;;;;;5.25;1.90;;;;;;;7.58;100.00;100121.81;4980870;28;20022;-96
2023/04/12 02:20:44;;;;;;;4.63;1.85;;;;;;;7.61;100.00;100118.44;4979460;28;20022;-96
2023/04/12 02:23:09;;;;;;;5.68;2.08;;;;;;;7.61;100.00;100100.28;4979042;28;20045;-96
2023/04/12 02:25:34;;;;;;;5.60;1.60;;;;;;;7.60;100.00;100086.47;4979970;28;20030;-96
2023/04/12 02:28:00;;;;;;;5.82;1.63;;;;;;;7.59;100.00;100076.03;4980421;28;20049;-96
2023/04/12 02:30:25;;;;;;;5.30;2.08;;;;;;;7.58;100.00;100082.06;4980010;28;20033;-95
2023/04/12 02:32:51;;;;;;;4.50;1.70;;;;;;;7.57;100.00;100078.59;4979140;28;20122;-96
2023/04/12 02:35:17;;;;;;;5.00;1.70;;;;;;;7.56;100.00;100065.59;4979762;28;20048;-96
2023/04/12 02:37:46;;;;;;;4.93;1.40;;;;;;;7.58;100.00;100069.09;4979318;28;20475;-95
2023/04/12 02:40:13;;;;;;;3.97;1.55;;;;;;;7.59;100.00;100047.50;4980192;28;20517;-96
2023/04/12 02:42:38;;;;;;;6.38;1.88;;;;;;;7.55;100.00;100028.44;4980929;28;20033;-96
2023/04/12 02:45:04;;;;;;;4.63;1.73;;;;;;;7.54;100.00;100031.84;4980904;28;20034;-96
2023/04/12 02:47:29;;;;;;;4.22;1.48;;;;;;;7.56;100.00;100029.28;4998878;28;20068;-96
2023/04/12 02:49:55;;;;;;;4.32;1.60;;;;;;;7.54;100.00;100025.81;4977980;28;20073;-96
2023/04/12 02:52:21;;;;;;;6.68;1.73;;;;;;;7.54;100.00;100028.41;4997260;28;20061;-95
2023/04/12 02:54:48;;;;;;;5.32;1.80;;;;;;;7.55;100.00;100023.25;4978369;28;20562;-96
2023/04/12 02:57:15;;;;;;;8.30;1.55;;;;;;;7.56;100.00;100009.44;4979929;28;20438;-94
2023/04/12 02:59:40;;;;;;;4.53;1.58;;;;;;;7.56;100.00;99991.31;4978883;28;20056;-94
2023/04/12 03:02:05;;;;;;;7.72;1.60;;;;;;;7.60;100.00;99984.44;4979371;28;20034;-95
2023/04/12 03:04:31;;;;;;;6.10;1.55;;;;;;;7.59;100.00;99981.00;4995719;28;20026;-94
2023/04/12 03:06:56;;;;;;;4.30;1.70;;;;;;;7.56;100.00;99985.22;4978239;28;20472;-94
2023/04/12 03:09:22;;;;;;;5.10;1.42;;;;;;;7.57;100.00;99966.25;4980144;28;20026;-94
2023/04/12 03:11:48;;;;;;;3.30;1.42;;;;;;;7.53;100.00;99962.72;4978201;28;20050;-94
2023/04/12 03:14:13;;;;;;;3.53;1.30;;;;;;;7.51;100.00;99955.75;4979918;28;20091;-94
2023/04/12 03:16:38;;;;;;;5.07;1.30;;;;;;;7.47;100.00;99960.88;4978673;28;20088;-94
2023/04/12 03:19:05;;;;;;;5.97;1.42;;;;;;;7.45;100.00;99939.22;4979411;28;20104;-94
2023/04/12 03:21:32;;;;;;;5.18;1.80;;;;;;;7.43;100.00;99953.88;4977057;28;20022;-94
2023/04/12 03:23:57;;;;;;;4.05;1.40;;;;;;;7.47;100.00;99947.91;4978913;28;20016;-94
2023/04/12 03:26:25;;;;;;;5.03;1.70;;;;;;;7.48;100.00;99935.81;4997125;28;20080;-94
2023/04/12 03:28:53;;;;;;;4.45;1.13;;;;;;;7.46;100.00;99940.09;4978721;28;20038;-94
2023/04/12 03:31:20;;;;;;;4.22;1.48;;;;;;;7.43;100.00;99938.31;4978267;28;20035;-95
2023/04/12 03:33:45;;;;;;;3.65;1.45;;;;;;;7.43;100.00;99924.47;4978124;28;20137;-95
2023/04/12 03:36:10;;;;;;;3.15;1.17;;;;;;;7.42;100.00;99920.13;4979695;28;20049;-95
2023/04/12 03:38:36;;;;;;;4.40;1.60;;;;;;;7.43;100.00;99916.69;4979416;28;20022;-95
2023/04/12 03:41:01;;;;;;;3.97;1.40;;;;;;;7.41;100.00;99918.38;4980013;28;20618;-94
2023/04/12 03:43:27;;;;;;;4.55;1.50;;;;;;;7.42;100.00;99913.22;4978644;28;20046;-94
2023/04/12 03:45:52;;;;;;;5.15;1.52;;;;;;;7.43;100.00;99915.00;4979381;28;20466;-95
2023/04/12 03:48:18;;;;;;;4.72;1.40;;;;;;;7.45;100.00;99915.03;4979098;28;20036;-94
2023/04/12 03:50:43;;;;;;;4.35;1.52;;;;;;;7.43;100.00;99899.44;4979088;28;20040;-94
2023/04/12 03:53:12;;;;;;;4.07;1.40;;;;;;;7.45;100.00;99895.16;4975998;28;21129;-94
2023/04/12 03:55:37;;;;;;;4.82;1.50;;;;;;;7.46;100.00;99896.03;4995703;28;20050;-95
2023/04/12 03:58:03;;;;;;;5.18;1.80;;;;;;;7.47;100.00;99888.31;4978111;28;20026;-95
2023/04/12 04:00:32;;;;;;;3.35;1.40;;;;;;;7.47;100.00;99893.47;4978179;28;20021;-95
2023/04/12 04:03:01;;;;;;;2.90;1.40;;;;;;;7.47;100.00;99874.44;4984701;28;20018;-95
2023/04/12 04:05:27;;;;;;;;;;;;;;;7.51;100.00;99873.66;4982741;28;20508;-95
2023/04/12 04:07:52;;;;;;;4.47;1.60;;;;;;;7.44;100.00;99864.03;4983070;28;20354;-96
2023/04/12 04:10:17;;;;;;;4.30;1.27;;;;;;;7.43;100.00;99863.16;4983016;28;20030;-96
2023/04/12 04:12:43;;;;;;;4.28;1.40;;;;;;;7.44;100.00;99858.84;4982551;28;20960;-96
2023/04/12 04:15:09;;;;;;;4.57;1.45;;;;;;;7.42;100.00;99861.41;4983951;28;20038;-95
2023/04/12 04:17:34;;;;;;;4.63;1.40;;;;;;;7.40;100.00;99849.25;4981574;28;20026;-96
2023/04/12 04:20:00;;;;;;;4.07;1.30;;;;;;;7.37;100.00;99844.91;4982570;28;20451;-95
2023/04/12 04:22:25;;;;;;;4.57;1.40;;;;;;;7.38;100.00;99843.16;4983322;28;20037;-96
2023/04/12 04:24:50;;;;;;;4.07;1.33;;;;;;;7.35;100.00;99838.78;4982867;28;20080;-95
2023/04/12 04:27:15;;;;;;;5.05;1.60;;;;;;;7.37;100.00;99836.22;4982112;28;20051;-96
2023/04/12 04:29:44;;;;;;;4.28;1.50;;;;;;;7.37;100.00;99837.13;4981759;28;20026;-95
2023/04/12 04:32:10;;;;;;;4.03;1.63;;;;;;;7.37;100.00;99833.63;5000427;28;20050;-94
2023/04/12 04:34:35;;;;;;;4.50;1.60;;;;;;;7.38;100.00;99823.31;4982513;28;20774;-96
2023/04/12 04:37:01;;;;;;;4.95;1.67;;;;;;;7.38;100.00;99818.13;4981125;28;20030;-96
2023/04/12 04:39:26;;;;;;;3.90;1.50;;;;;;;7.39;100.00;99816.41;4980825;28;20026;-96
2023/04/12 04:41:53;;;;;;;3.90;1.65;;;;;;;7.38;100.00;99818.13;4982612;28;20022;-96
2023/04/12 04:44:19;;;;;;;5.32;1.90;;;;;;;7.39;100.00;99804.31;4983227;28;20106;-96
2023/04/12 04:46:45;;;;;;;5.03;1.58;;;;;;;7.39;100.00;99809.50;4982909;28;20462;-95
2023/04/12 04:49:10;;;;;;;3.63;1.60;;;;;;;7.41;100.00;99807.81;4980292;28;20084;-96
2023/04/12 04:51:35;;;;;;;3.38;1.50;;;;;;;7.41;100.00;99797.44;4983922;28;20038;-96
2023/04/12 04:54:01;;;;;;;5.22;1.70;;;;;;;7.40;100.00;99803.50;4981991;28;20039;-96
2023/04/12 04:56:26;;;;;;;4.10;1.52;;;;;;;7.41;100.00;99805.22;4982241;28;20119;-96
2023/04/12 04:58:52;;;;;;;4.00;1.70;;;;;;;7.44;100.00;99800.13;4998136;28;20033;-96
2023/04/12 05:01:17;;;;;;;4.28;1.60;;;;;;;7.46;100.00;99801.00;4982821;28;20030;-96
2023/04/12 05:03:44;;;;;;;4.85;1.63;;;;;;;7.45;100.00;99788.88;4983594;28;20019;-96
2023/04/12 05:06:12;;;;;;;4.38;1.70;;;;;;;7.47;100.00;99800.19;4982668;28;20061;-96
2023/04/12 05:08:37;;;;;;;3.78;1.85;;;;;;;7.45;100.00;99794.06;4982961;28;20034;-96
2023/04/12 05:11:03;;;;;;;4.47;1.90;;;;;;;7.46;100.00;99797.56;4983115;28;20052;-95
2023/04/12 05:13:28;;;;;;;4.88;1.80;;;;;;;7.47;100.00;99794.09;4981679;28;20034;-95
2023/04/12 05:15:53;;;;;;;4.95;1.60;;;;;;;7.47;100.00;99797.59;4981509;28;20037;-95
2023/04/12 05:18:19;;;;;;;3.45;1.60;;;;;;;7.48;100.00;99788.94;4981444;28;20034;-95
2023/04/12 05:20:44;;;;;;;4.35;1.63;;;;;;;7.50;100.00;99783.78;4980322;28;20117;-96
2023/04/12 05:23:10;;;;;;;5.07;2.03;;;;;;;7.50;100.00;99776.00;4980987;28;20026;-95
2023/04/12 05:25:35;;;;;;;5.82;1.90;;;;;;;7.51;100.00;99777.75;4980901;28;20030;-95
2023/04/12 05:28:01;;;;;;;5.07;1.90;;;;;;;7.52;100.00;99789.88;4981423;28;20062;-95
2023/04/12 05:30:26;;;;;;;4.80;1.55;;;;;;;7.55;100.00;99787.34;4980548;28;20037;-95
2023/04/12 05:32:51;;;;;;;3.20;1.60;;;;;;;7.58;100.00;99789.13;4981240;28;20041;-95
2023/04/12 05:35:17;;;;;;;3.95;1.75;;;;;;;7.60;100.00;99767.59;4997003;28;20049;-94
2023/04/12 05:37:42;;;;;;;4.43;1.63;;;;;;;7.60;100.00;99771.88;4980761;28;20085;-95
2023/04/12 05:40:08;;;;;;;4.03;1.85;;;;;;;7.59;100.00;99768.41;4981098;28;20034;-96
2023/04/12 05:42:35;;;;;;;3.88;1.55;;;;;;;7.59;100.00;99770.13;4980124;28;20165;-95
2023/04/12 05:45:02;;;;;;;5.45;2.00;;;;;;;7.59;100.00;99768.41;4981873;28;20021;-95
2023/04/12 05:47:27;;;;;;;3.75;1.67;;;;;;;7.61;100.00;99768.44;4980790;28;20036;-95
2023/04/12 05:49:53;;;;;;;7.22;2.22;;;;;;;7.64;100.00;99768.50;4979951;28;20160;-95
2023/04/12 05:52:18;;;;;;;5.60;2.33;;;;;;;7.66;100.00;99759.91;4981677;28;20026;-94
2023/04/12 05:54:43;;;;;;;3.88;1.90;;;;;;;7.68;100.00;99774.63;4980787;28;20708;-95
2023/04/12 05:57:09;;;;;;;4.07;2.00;;;;;;;7.68;100.00;99759.94;4979584;28;20033;-94
2023/04/12 05:59:34;;;;;;;4.88;1.98;;;;;;;7.69;100.00;99756.50;4979664;28;20025;-95
2023/04/12 06:02:00;;;;;;;4.47;1.75;;;;;;;7.71;100.00;99765.16;4979095;28;20523;-95
2023/04/12 06:04:25;;;;;;;4.28;1.80;;;;;;;7.73;100.00;99757.41;4979209;28;20483;-95
2023/04/12 06:06:51;;;;;;;5.07;2.10;;;;;;;7.74;100.00;99759.16;4980080;28;20029;-95
2023/04/12 06:09:17;;;;;;;5.75;1.85;;;;;;;7.75;100.00;99754.00;4980834;28;20026;-95
2023/04/12 06:11:42;;;;;;;5.10;2.08;;;;;;;7.77;100.00;99756.63;4980323;28;20030;-95
2023/04/12 06:14:08;;;;;;;5.53;1.85;;;;;;;7.78;100.00;99756.66;4977830;28;20407;-95
2023/04/12 06:16:33;;;;;;;5.50;2.35;;;;;;;7.80;100.00;99752.34;4980849;28;20112;-95
2023/04/12 06:18:59;;;;;;;4.72;2.15;;;;;;;7.83;100.00;99748.94;4982570;28;20476;-95
2023/04/12 06:21:24;;;;;;;5.68;2.00;;;;;;;7.83;100.00;99749.84;4981020;28;20041;-95
2023/04/12 06:23:49;;;;;;;6.47;2.10;;;;;;;7.87;100.00;99755.06;4995185;28;20145;-95
2023/04/12 06:26:15;;;;;;;5.28;2.10;;;;;;;7.87;100.00;99747.28;4996708;28;20475;-95
2023/04/12 06:28:40;;;;;;;6.90;2.50;;;;;;;7.90;100.00;99752.53;4998156;28;20041;-95
2023/04/12 06:31:06;;;;;;;5.50;2.08;;;;;;;7.91;100.00;99746.50;4997593;28;20032;-96
2023/04/12 06:33:31;;;;;;;4.30;2.22;;;;;;;7.92;100.00;99748.22;4979579;28;20523;-95
2023/04/12 06:35:57;;;;;;;6.05;2.25;;;;;;;7.92;100.00;99743.94;4998339;28;20037;-95
2023/04/12 06:38:22;;;;;;;5.78;2.30;;;;;;;7.96;100.00;99739.66;4998616;28;20034;-95
2023/04/12 06:40:48;;;;;;;6.40;2.40;;;;;;;7.99;100.00;99742.28;4997844;28;20038;-95
2023/04/12 06:43:21;;;;;;;7.35;4.07;;;;;;;8.00;100.00;99747.50;4978446;28;20048;-95
2023/04/12 06:45:48;;;;;;;4.90;2.75;;;;;;;8.03;100.00;99738.03;4996446;28;20476;-95
2023/04/12 06:48:14;;;;;;;6.78;2.72;;;;;;;8.05;100.00;99741.50;4996323;28;20072;-95
2023/04/12 06:50:39;;;;;;;6.10;2.92;;;;;;;8.06;100.00;99744.13;4980712;28;20033;-95
2023/04/12 06:53:05;;;;;;;5.90;2.97;;;;;;;8.09;100.00;99746.78;4980005;28;20034;-95
2023/04/12 06:55:30;;;;;;;6.50;3.20;;;;;;;8.10;100.00;99743.34;4979644;28;20543;-95
2023/04/12 06:57:56;;;;;;;6.60;3.30;;;;;;;8.12;100.00;99749.41;4997169;28;20116;-95
2023/04/12 07:00:21;;;;;;;6.68;3.72;;;;;;;8.14;100.00;99749.44;4980485;28;20022;-95
2023/04/12 07:02:47;;;;;;;8.10;4.43;;;;;;;8.17;100.00;99755.56;4979891;28;20026;-95
2023/04/12 07:05:13;;;;;;;6.43;4.40;;;;;;;8.22;100.00;99754.75;4980011;28;20030;-96
2023/04/12 07:07:38;;;;;;;7.35;4.00;;;;;;;8.24;100.00;99755.66;4996409;28;20038;-95
2023/04/12 07:10:04;;;;;;;6.65;4.03;;;;;;;8.26;100.00;99753.97;4978816;28;20704;-95
2023/04/12 07:12:30;;;;;;;6.38;3.92;;;;;;;8.28;100.00;99749.66;4996434;28;20034;-94
2023/04/12 07:14:55;;;;;;;6.60;3.97;;;;;;;8.31;100.00;99748.00;4975859;28;20021;-95
2023/04/12 07:17:21;;;;;;;6.80;4.20;;;;;;;8.32;100.00;99754.06;4997598;28;20061;-96
2023/04/12 07:19:47;;;;;;;8.60;4.38;;;;;;;8.34;100.00;99755.81;4980206;28;20037;-96
2023/04/12 07:22:13;;;;;;;7.28;4.00;;;;;;;8.35;100.00;99754.94;4978746;28;20031;-95
2023/04/12 07:24:38;;;;;;;7.20;4.20;;;;;;;8.39;100.00;99750.69;4976957;28;20207;-96
2023/04/12 07:27:03;;;;;;;8.57;3.97;;;;;;;8.40;100.00;99752.44;4977206;28;20413;-95
2023/04/12 07:29:29;;;;;;;6.30;3.92;;;;;;;8.41;100.00;99756.78;4979726;28;20026;-95
2023/04/12 07:31:54;;;;;;;8.13;4.07;;;;;;;8.42;100.00;99755.06;4978817;28;20391;-95
2023/04/12 07:34:19;;;;;;;9.23;4.05;;;;;;;8.44;100.00;99759.44;4978459;28;20080;-94
2023/04/12 07:36:45;;;;;;;7.68;4.05;;;;;;;8.46;100.00;99762.94;4980331;28;20113;-94
2023/04/12 07:39:13;;;;;;;9.55;4.40;;;;;;;8.50;100.00;99750.88;4984012;28;20483;-95
2023/04/12 07:41:41;;;;;;;7.65;4.28;;;;;;;8.52;100.00;99742.25;4984335;28;20026;-94
2023/04/12 07:44:06;;;;;;;10.10;4.47;;;;;;;8.57;100.00;99738.84;4982693;28;20034;-96
2023/04/12 07:46:31;;;;;;;8.98;4.15;;;;;;;8.63;100.00;99749.31;4979873;28;20033;-95
2023/04/12 07:48:56;;;;;;;9.77;4.18;;;;;;;8.65;100.00;99738.09;4983115;28;20026;-95
2023/04/12 07:51:22;;;;;;;10.57;4.00;;;;;;;8.68;100.00;99732.94;5000759;28;20038;-95
2023/04/12 07:53:47;;;;;;;10.45;4.22;;;;;;;8.70;100.00;99727.78;5000374;28;20026;-95
2023/04/12 07:56:13;;;;;;;11.10;4.50;;;;;;;8.77;100.00;99728.75;5000864;28;20050;-95
2023/04/12 07:58:39;;;;;;;10.93;4.38;;;;;;;8.80;100.00;99734.84;4988651;28;20026;-96
2023/04/12 08:01:06;;;;;;;11.07;4.07;;;;;;;8.83;100.00;99734.00;4986042;28;20054;-96
2023/04/12 08:03:31;;;;;;;10.80;4.00;;;;;;;8.85;100.00;99729.72;4986312;28;20022;-96
2023/04/12 08:05:57;;;;;;;10.52;4.40;;;;;;;8.90;100.00;99747.97;4987376;28;20034;-96
2023/04/12 08:08:22;;;;;;;11.40;4.35;;;;;;;8.87;100.00;99736.66;4988909;28;20116;-96
2023/04/12 08:10:48;;;;;;;9.50;3.72;;;;;;;8.86;100.00;99734.94;4989550;28;20017;-96
2023/04/12 08:13:14;;;;;;;11.38;3.90;;;;;;;8.85;100.00;99743.56;4986538;28;20313;-96
2023/04/12 08:15:40;;;;;;;9.98;4.25;;;;;;;8.85;100.00;99751.38;4987266;28;20041;-96
2023/04/12 08:18:05;;;;;;;7.47;3.75;;;;;;;8.85;100.00;99753.97;5005557;28;20081;-96
2023/04/12 08:20:31;;;;;;;10.30;3.88;;;;;;;8.86;100.00;99760.91;5008722;28;20050;-96
2023/04/12 08:22:57;;;;;;;9.73;3.67;;;;;;;8.82;100.00;99758.22;4995224;28;20018;-96
2023/04/12 08:25:23;;;;;;;8.65;3.47;;;;;;;8.77;100.00;99749.53;5007795;28;20399;-96
2023/04/12 08:27:49;;;;;;;7.88;3.00;;;;;;;8.74;100.00;99758.13;5006516;28;20030;-96
2023/04/12 08:30:16;;;;;;;8.55;3.75;;;;;;;8.69;100.00;99752.03;5005594;28;20022;-96
2023/04/12 08:32:42;;;;;;;8.65;3.90;;;;;;;8.66;100.00;99746.75;4984147;28;20507;-96
2023/04/12 08:35:08;;;;;;;8.88;3.40;;;;;;;8.66;100.00;99758.03;4984159;28;20026;-96
2023/04/12 08:37:34;;;;;;;12.38;3.88;;;;;;;8.69;100.00;99760.69;5001194;28;20038;-96
2023/04/12 08:40:03;;;;;;;13.50;4.20;;;;;;;8.76;100.00;99761.66;4985777;28;20180;-96
2023/04/12 08:42:30;;;;;;;12.60;4.18;;;;;;;8.85;100.00;99750.50;4985026;28;20174;-96
2023/04/12 08:44:56;;;;;;;12.82;4.10;;;;;;;8.94;100.00;99739.34;4984555;28;20027;-96
2023/04/12 08:47:21;;;;;;;11.10;4.10;;;;;;;9.02;100.00;99733.41;4983741;28;20688;-96
2023/04/12 08:49:46;;;;;;;12.25;4.00;;;;;;;9.11;100.00;99730.03;4985606;28;20084;-96
2023/04/12 08:52:14;;;;;;;11.55;3.97;;;;;;;9.22;100.00;99731.03;4992819;28;20589;-96
2023/04/12 08:54:39;;;;;;;11.65;4.45;;;;;;;9.35;100.00;99737.19;4990166;28;20626;-96
2023/04/12 08:57:06;;;;;;;12.35;4.78;;;;;;;9.50;100.00;99743.41;4992573;28;20037;-96
2023/04/12 08:59:36;;;;;;;15.75;5.75;;;;;;;9.68;100.00;99742.75;5004387;28;20050;-96
2023/04/12 09:02:02;;;;;;;13.27;5.28;;;;;;;9.78;100.00;99741.97;4996174;28;20030;-96
2023/04/12 09:04:28;;;;;;;12.95;5.35;;;;;;;9.89;100.00;99736.84;4993532;28;20046;-96
2023/04/12 09:06:54;;;;;;;13.07;5.70;;;;;;;9.98;100.00;99734.34;4993886;28;20026;-96
2023/04/12 09:09:39;;;;;;;13.57;5.50;;;;;;;10.14;100.00;99732.72;4991462;28;20028;-96
2023/04/12 09:12:08;;;;;;;14.25;5.75;;;;;;;10.33;100.00;99725.03;4995518;28;20018;-96
2023/04/12 09:14:33;;;;;;;13.52;5.72;;;;;;;10.46;100.00;99719.06;4994715;28;20105;-96
2023/04/12 09:16:59;;;;;;;17.23;6.65;;;;;;;10.63;99.09;99727.00;4988586;28;20113;-95
2023/04/12 09:19:31;;;;;;;17.63;6.68;;;;;;;10.73;99.31;99717.47;4979751;28;20066;-96
2023/04/12 09:21:57;;;;;;;14.50;7.20;;;;;;;10.73;96.37;99720.06;4981529;28;20034;-96
2023/04/12 09:24:25;;;;;;;16.75;7.38;;;;;;;10.71;94.28;99717.47;4982471;28;20022;-95
2023/04/12 09:27:05;;;;;;;17.42;7.05;;;;;;;10.84;94.53;99730.56;4981032;28;20030;-96
2023/04/12 09:29:32;;;;;;;19.27;7.80;;;;;;;11.14;95.37;99717.63;4981589;28;20034;-96
2023/04/12 09:32:04;;;;;;;17.08;7.88;;;;;;;11.45;93.02;99714.22;4981043;28;20128;-95
2023/04/12 09:34:34;;;;;;;19.88;8.20;;;;;;;11.65;92.96;99712.50;4981964;28;20032;-95
2023/04/12 09:37:12;;;;;;;18.80;7.47;;;;;;;11.72;89.92;99705.56;4980143;28;20546;-95
2023/04/12 09:39:37;;;;;;;17.63;7.55;;;;;;;11.64;87.43;99718.63;4980059;28;20121;-95
2023/04/12 09:42:09;;;;;;;21.58;7.35;;;;;;;11.45;86.91;99717.69;4981359;28;20543;-96
2023/04/12 09:44:35;;;;;;;16.77;7.50;;;;;;;11.25;87.51;99716.78;4998597;28;20034;-95
2023/04/12 09:47:03;;;;;;;22.05;8.52;;;;;;;11.18;89.38;99723.75;4980944;28;20025;-96
2023/04/12 09:49:41;;;;;;;20.80;7.88;;;;;;;11.19;89.91;99712.41;4982741;28;20022;-96
2023/04/12 09:52:09;;;;;;;24.67;8.20;;;;;;;11.22;89.19;99709.81;4979379;28;21048;-94
2023/04/12 09:54:44;;;;;;;24.77;8.20;;;;;;;11.21;88.40;99695.06;4981497;28;20026;-96
2023/04/12 09:57:10;;;;;;;17.42;6.47;;;;;;;11.17;86.53;99697.66;4980484;28;20030;-96
2023/04/12 09:59:40;;;;;;;21.63;6.78;;;;;;;11.13;85.80;99699.38;4979410;28;20046;-96
2023/04/12 10:02:14;;;;;;;17.83;5.90;;;;;;;11.11;84.24;99695.91;4979978;28;20026;-96
2023/04/12 10:04:40;;;;;;;14.70;5.90;;;;;;;11.00;82.66;99708.03;4997481;28;20032;-94
2023/04/12 10:07:06;;;;;;;13.63;5.57;;;;;;;10.96;86.01;99696.72;4979480;28;20047;-95
2023/04/12 10:09:33;;;;;;;19.88;6.07;;;;;;;10.95;87.45;99685.44;4997408;28;20476;-95
2023/04/12 10:12:00;;;;;;;16.13;6.43;;;;;;;10.98;88.37;99696.72;4997754;28;20034;-94
2023/04/12 10:14:27;;;;;;;17.17;6.40;;;;;;;11.00;87.61;99706.28;4997987;28;20499;-95
2023/04/12 10:16:56;;;;;;;18.25;6.15;;;;;;;10.98;84.74;99715.84;4979852;28;20076;-95
2023/04/12 10:19:24;;;;;;;20.80;6.35;;;;;;;10.94;85.36;99720.16;4979736;28;20461;-95
2023/04/12 10:21:50;;;;;;;18.35;6.18;;;;;;;10.89;83.03;99716.69;4977718;28;20124;-95
2023/04/12 10:24:16;;;;;;;17.13;5.82;;;;;;;10.85;84.57;99704.50;4979493;28;20579;-95
2023/04/12 10:26:43;;;;;;;16.10;5.00;;;;;;;10.86;83.84;99710.56;4997541;28;20395;-95
2023/04/12 10:29:21;;;;;;;15.70;5.18;;;;;;;10.85;81.60;99708.81;4979192;28;20093;-95
2023/04/12 10:31:46;;;;;;;18.27;4.50;;;;;;;10.81;80.31;99713.16;4996552;28;20037;-95
2023/04/12 10:34:11;;;;;;;32.08;5.40;;;;;;;10.79;81.36;99709.69;4996803;28;20027;-95
2023/04/12 10:36:53;;;;;;;13.18;4.40;;;;;;;10.79;80.24;99720.13;4977675;28;20126;-96
2023/04/12 10:39:35;;;;;;;18.55;4.80;;;;;;;10.78;82.26;99713.16;4978806;28;20492;-95
2023/04/12 10:42:29;;;;;;;17.55;4.38;;;;;;;10.87;83.31;99720.16;4979748;28;20034;-96
2023/04/12 10:45:15;;;;;;;17.00;4.10;;;;;;;10.83;76.15;99721.00;4978334;28;20117;-95
2023/04/12 10:50:20;;;;;;;13.23;3.63;;;;;;;10.61;75.32;99729.56;4994248;28;20544;-72
2023/04/12 10:53:19;;;;;;;13.88;3.38;;;;;;;10.49;77.81;99734.72;4996054;28;20041;-72
2023/04/12 10:55:44;;;;;;;13.55;3.65;;;;;;;10.40;78.51;99732.06;4996977;28;20040;-72
2023/04/12 10:58:30;;;;;;;16.48;3.60;;;;;;;10.31;79.68;99731.97;4997776;28;20061;-72
2023/04/12 11:00:56;;;;;;;15.43;3.85;;;;;;;10.18;81.09;99720.59;4995551;28;20030;-72
2023/04/12 11:03:21;;;;;;;19.35;4.38;;;;;;;10.12;82.42;99729.22;4978533;28;20382;-72
2023/04/12 11:06:01;;;;;;;13.25;3.53;;;;;;;10.11;84.51;99737.91;4978515;28;20022;-72
2023/04/12 11:08:31;;;;;;;11.07;3.80;;;;;;;10.08;85.74;99735.28;4994782;28;20026;-72
2023/04/12 11:11:02;;;;;;;17.63;4.40;;;;;;;10.10;87.08;99733.56;4978108;28;20041;-72
2023/04/12 11:13:32;;;;;;;18.23;4.63;;;;;;;10.09;86.94;99731.81;4987481;28;20037;-72
2023/04/12 11:16:01;;;;;;;17.90;5.63;;;;;;;10.08;86.26;99732.69;4976357;28;20034;-72
2023/04/12 11:18:27;;;;;;;19.13;6.25;;;;;;;10.16;88.39;99741.41;4974339;28;20125;-72
2023/04/12 11:20:53;;;;;;;15.35;6.30;;;;;;;10.20;87.23;99748.38;4978475;28;20545;-72
2023/04/12 11:23:18;;;;;;;17.50;6.32;;;;;;;10.25;89.32;99748.41;4976592;28;20019;-72
2023/04/12 11:25:50;;;;;;;17.17;6.35;;;;;;;10.27;90.93;99744.97;4977091;28;20038;-72
2023/04/12 11:28:18;;;;;;;17.38;6.75;;;;;;;10.30;91.63;99746.72;4975832;28;20380;-71
2023/04/12 11:31:02;;;;;;;18.27;5.90;;;;;;;10.32;90.86;99736.31;4959171;28;20042;-72
2023/04/12 11:33:31;;;;;;;18.73;5.57;;;;;;;10.30;91.47;99732.81;4975130;28;20041;-71